createdAt,value
2018-07-15T00:00:01.523Z,24.90
2018-07-15T00:01:01.501Z,23.20
2018-07-15T00:02:01.486Z,25.70
2018-07-15T00:03:01.524Z,26.10
2018-07-15T00:04:01.432Z,26.10
2018-07-15T00:05:01.416Z,27.20
2018-07-15T00:06:01.394Z,26.00
2018-07-15T00:07:01.370Z,26.00
2018-07-15T00:08:01.345Z,25.00
2018-07-15T00:09:01.327Z,25.60
2018-07-15T00:10:01.304Z,25.40
2018-07-15T00:11:01.274Z,27.00
2018-07-15T00:12:01.261Z,27.20
2018-07-15T00:13:01.236Z,27.20
2018-07-15T00:14:01.211Z,27.60
2018-07-15T00:15:01.179Z,26.40
2018-07-15T00:16:01.174Z,25.90
2018-07-15T00:17:01.209Z,25.60
2018-07-15T00:18:01.127Z,25.30
2018-07-15T00:19:01.105Z,27.00
2018-07-15T00:20:01.083Z,30.40
2018-07-15T00:21:01.060Z,31.60
2018-07-15T00:22:01.032Z,31.70
2018-07-15T00:23:01.021Z,28.90
2018-07-15T00:24:00.983Z,27.20
2018-07-15T00:25:00.967Z,29.60
2018-07-15T00:26:00.943Z,29.70
2018-07-15T00:27:00.912Z,32.90
2018-07-15T00:28:00.898Z,30.90
2018-07-15T00:29:00.885Z,32.80
2018-07-15T00:30:00.841Z,37.40
2018-07-15T00:31:00.821Z,38.30
2018-07-15T00:32:00.812Z,34.70
2018-07-15T00:33:00.785Z,30.40
2018-07-15T00:34:00.754Z,31.50
2018-07-15T00:35:00.746Z,32.70
2018-07-15T00:36:00.705Z,30.70
2018-07-15T00:37:00.681Z,34.20
2018-07-15T00:38:00.680Z,35.00
2018-07-15T00:39:00.656Z,33.10
2018-07-15T00:40:00.633Z,35.60
2018-07-15T00:41:00.612Z,36.90
2018-07-15T00:42:00.575Z,35.50
2018-07-15T00:43:00.569Z,36.00
2018-07-15T00:44:00.524Z,34.20
2018-07-15T00:45:00.523Z,35.90
2018-07-15T00:46:00.499Z,42.10
2018-07-15T00:47:00.476Z,40.00
2018-07-15T00:48:00.438Z,38.50
2018-07-15T00:49:00.438Z,39.70
2018-07-15T00:50:00.408Z,38.60
2018-07-15T00:51:00.387Z,37.40
2018-07-15T00:52:00.370Z,37.00
2018-07-15T00:53:00.341Z,38.60
2018-07-15T00:54:00.321Z,38.90
2018-07-15T00:55:00.280Z,42.70
2018-07-15T00:56:00.277Z,51.30
2018-07-15T00:57:00.252Z,59.20
2018-07-15T00:58:00.232Z,57.60
2018-07-15T00:59:00.207Z,58.70
2018-07-15T01:00:00.184Z,56.90
2018-07-15T01:01:00.159Z,54.20
2018-07-15T01:02:00.145Z,50.30
2018-07-15T01:03:00.116Z,49.80
2018-07-15T01:04:00.093Z,48.50
2018-07-15T01:05:00.055Z,52.50
2018-07-15T01:06:00.049Z,50.50
2018-07-15T01:07:00.018Z,51.00
2018-07-15T01:08:00.011Z,52.30
2018-07-15T01:08:59.981Z,50.70
2018-07-15T01:09:59.960Z,52.40
2018-07-15T01:10:59.941Z,52.80
2018-07-15T01:11:59.914Z,48.40
2018-07-15T01:12:59.896Z,46.60
2018-07-15T01:13:59.860Z,46.00
2018-07-15T01:14:59.848Z,44.60
2018-07-15T01:15:59.824Z,44.10
2018-07-15T01:16:59.805Z,44.20
2018-07-15T01:17:59.777Z,41.90
2018-07-15T01:18:59.757Z,41.70
2018-07-15T01:19:59.743Z,41.90
2018-07-15T01:20:59.711Z,43.00
2018-07-15T01:21:59.691Z,42.10
2018-07-15T01:22:59.667Z,43.70
2018-07-15T01:23:59.638Z,42.90
2018-07-15T01:24:59.624Z,42.70
2018-07-15T01:25:59.602Z,42.90
2018-07-15T01:26:59.561Z,39.60
2018-07-15T01:27:59.557Z,41.70
2018-07-15T01:28:59.532Z,39.30
2018-07-15T01:29:59.512Z,39.60
2018-07-15T01:30:59.491Z,38.00
2018-07-15T01:31:59.469Z,39.00
2018-07-15T01:32:59.429Z,37.50
2018-07-15T01:33:59.415Z,35.80
2018-07-15T01:34:59.402Z,37.00
2018-07-15T01:35:59.372Z,36.30
2018-07-15T01:36:59.352Z,35.90
2018-07-15T01:37:59.333Z,37.60
2018-07-15T01:38:59.309Z,38.90
2018-07-15T01:39:59.284Z,41.00
2018-07-15T01:40:59.261Z,41.60
2018-07-15T01:41:59.224Z,40.80
2018-07-15T01:42:59.200Z,39.30
2018-07-15T01:43:59.202Z,39.90
2018-07-15T01:44:59.171Z,44.50
2018-07-15T01:45:59.148Z,41.40
2018-07-15T01:46:59.125Z,41.40
2018-07-15T01:47:59.104Z,47.20
2018-07-15T01:48:59.082Z,46.80
2018-07-15T01:49:59.057Z,46.00
2018-07-15T01:50:59.019Z,48.10
2018-07-15T01:51:59.013Z,43.40
2018-07-15T01:52:58.998Z,43.40
2018-07-15T01:53:58.967Z,48.20
2018-07-15T01:54:58.944Z,49.60
2018-07-15T01:55:58.920Z,48.10
2018-07-15T01:56:58.900Z,43.20
2018-07-15T01:57:58.858Z,45.50
2018-07-15T01:58:58.855Z,40.80
2018-07-15T01:59:58.814Z,46.10
2018-07-15T02:00:58.818Z,47.50
2018-07-15T02:01:58.789Z,53.70
2018-07-15T02:02:58.761Z,65.80
2018-07-15T02:03:58.748Z,60.60
2018-07-15T02:04:58.716Z,55.70
2018-07-15T02:05:58.691Z,63.30
2018-07-15T02:06:58.677Z,53.70
2018-07-15T02:07:58.645Z,56.30
2018-07-15T02:08:58.624Z,63.40
2018-07-15T02:09:58.596Z,78.80
2018-07-15T02:10:58.588Z,78.60
2018-07-15T02:11:58.557Z,83.30
2018-07-15T02:12:58.534Z,74.00
2018-07-15T02:13:58.511Z,66.80
2018-07-15T02:14:58.487Z,65.00
2018-07-15T02:15:58.458Z,63.50
2018-07-15T02:16:58.446Z,60.70
2018-07-15T02:17:58.422Z,62.30
2018-07-15T02:18:58.400Z,62.80
2018-07-15T02:19:58.370Z,60.90
2018-07-15T02:20:58.354Z,57.60
2018-07-15T02:21:58.329Z,56.40
2018-07-15T02:22:58.301Z,56.90
2018-07-15T02:23:58.280Z,57.30
2018-07-15T02:24:58.244Z,57.40
2018-07-15T02:25:58.234Z,56.80
2018-07-15T02:26:58.210Z,59.50
2018-07-15T02:27:58.188Z,58.50
2018-07-15T02:28:58.151Z,59.50
2018-07-15T02:29:58.127Z,56.20
2018-07-15T02:30:58.115Z,54.90
2018-07-15T02:31:58.099Z,53.00
2018-07-15T02:32:58.068Z,55.50
2018-07-15T02:33:58.052Z,55.60
2018-07-15T02:34:58.030Z,54.10
2018-07-15T02:35:58.007Z,53.10
2018-07-15T02:36:57.985Z,54.40
2018-07-15T02:37:57.961Z,54.60
2018-07-15T02:38:57.921Z,55.90
2018-07-15T02:39:57.911Z,56.10
2018-07-15T02:40:57.891Z,56.00
2018-07-15T02:41:57.850Z,54.70
2018-07-15T02:42:57.829Z,57.10
2018-07-15T02:43:57.824Z,53.90
2018-07-15T02:44:57.808Z,55.20
2018-07-15T02:45:57.770Z,56.60
2018-07-15T02:46:57.748Z,57.20
2018-07-15T02:47:57.721Z,56.00
2018-07-15T02:48:57.702Z,55.90
2018-07-15T02:49:57.681Z,57.80
2018-07-15T02:50:57.655Z,60.40
2018-07-15T02:51:57.632Z,63.00
2018-07-15T02:52:57.605Z,61.20
2018-07-15T02:53:57.587Z,62.20
2018-07-15T02:54:57.561Z,60.00
2018-07-15T02:55:57.540Z,61.00
2018-07-15T02:56:57.510Z,61.60
2018-07-15T02:57:57.496Z,62.00
2018-07-15T02:58:57.471Z,63.70
2018-07-15T02:59:57.431Z,65.40
2018-07-15T03:00:57.427Z,67.40
2018-07-15T03:01:57.398Z,67.50
2018-07-15T03:02:57.371Z,68.60
2018-07-15T03:03:57.355Z,71.40
2018-07-15T03:04:57.330Z,68.60
2018-07-15T03:05:57.291Z,68.70
2018-07-15T03:06:57.280Z,67.30
2018-07-15T03:07:57.262Z,63.40
2018-07-15T03:08:57.236Z,64.60
2018-07-15T03:09:57.211Z,65.20
2018-07-15T03:10:57.189Z,66.20
2018-07-15T03:11:57.169Z,66.90
2018-07-15T03:12:57.142Z,69.10
2018-07-15T03:13:57.101Z,70.10
2018-07-15T03:14:57.078Z,74.10
2018-07-15T03:15:57.068Z,72.90
2018-07-15T03:16:57.045Z,76.20
2018-07-15T03:17:57.066Z,75.80
2018-07-15T03:18:57.004Z,75.00
2018-07-15T03:19:56.981Z,76.50
2018-07-15T03:20:56.956Z,79.60
2018-07-15T03:21:56.935Z,79.40
2018-07-15T03:22:56.908Z,77.70
2018-07-15T03:23:56.886Z,75.40
2018-07-15T03:24:56.867Z,76.40
2018-07-15T03:25:56.837Z,75.10
2018-07-15T03:26:56.800Z,74.80
2018-07-15T03:27:56.792Z,74.90
2018-07-15T03:28:56.767Z,76.30
2018-07-15T03:29:56.751Z,75.40
2018-07-15T03:30:56.725Z,74.60
2018-07-15T03:31:56.698Z,76.50
2018-07-15T03:32:56.672Z,76.60
2018-07-15T03:33:56.654Z,78.30
2018-07-15T03:34:56.624Z,74.70
2018-07-15T03:35:56.587Z,77.70
2018-07-15T03:36:56.581Z,82.00
2018-07-15T03:37:56.554Z,82.10
2018-07-15T03:38:56.536Z,79.60
2018-07-15T03:39:56.571Z,79.10
2018-07-15T03:40:56.482Z,78.80
2018-07-15T03:41:56.459Z,79.20
2018-07-15T03:42:56.439Z,78.30
2018-07-15T03:43:56.417Z,77.90
2018-07-15T03:44:56.398Z,73.90
2018-07-15T03:45:56.367Z,76.40
2018-07-15T03:46:56.333Z,75.80
2018-07-15T03:47:56.321Z,75.60
2018-07-15T03:48:56.293Z,70.50
2018-07-15T03:49:56.253Z,71.90
2018-07-15T03:50:56.238Z,72.20
2018-07-15T03:51:56.228Z,71.70
2018-07-15T03:52:56.202Z,72.20
2018-07-15T03:53:56.165Z,74.20
2018-07-15T03:54:56.152Z,75.50
2018-07-15T03:55:56.297Z,73.10
2018-07-15T03:56:56.094Z,73.50
2018-07-15T03:57:56.083Z,72.60
2018-07-15T03:58:56.059Z,70.90
2018-07-15T03:59:56.040Z,72.20
2018-07-15T04:00:56.014Z,72.60
2018-07-15T04:01:55.975Z,74.50
2018-07-15T04:02:55.953Z,74.70
2018-07-15T04:03:55.943Z,76.10
2018-07-15T04:04:55.922Z,75.80
2018-07-15T04:05:55.894Z,76.60
2018-07-15T04:06:55.871Z,75.20
2018-07-15T04:07:55.850Z,76.90
2018-07-15T04:08:55.940Z,77.70
2018-07-15T04:09:55.805Z,77.40
2018-07-15T04:10:55.783Z,77.90
2018-07-15T04:11:55.747Z,77.00
2018-07-15T04:12:55.729Z,80.40
2018-07-15T04:13:55.703Z,80.30
2018-07-15T04:14:55.683Z,78.30
2018-07-15T04:15:55.655Z,81.20
2018-07-15T04:16:55.631Z,80.10
2018-07-15T04:17:55.610Z,79.20
2018-07-15T04:18:55.583Z,78.70
2018-07-15T04:19:55.560Z,80.70
2018-07-15T04:20:55.540Z,80.90
2018-07-15T04:21:55.515Z,79.20
2018-07-15T04:22:55.475Z,78.20
2018-07-15T04:23:55.466Z,78.40
2018-07-15T04:24:55.442Z,81.50
2018-07-15T04:25:55.420Z,79.40
2018-07-15T04:26:55.395Z,79.90
2018-07-15T04:27:55.369Z,81.40
2018-07-15T04:28:55.345Z,84.30
2018-07-15T04:29:55.304Z,83.10
2018-07-15T04:30:55.296Z,84.30
2018-07-15T04:31:55.272Z,84.20
2018-07-15T04:32:55.246Z,84.60
2018-07-15T04:33:55.226Z,85.60
2018-07-15T04:34:55.203Z,86.00
2018-07-15T04:35:55.176Z,83.60
2018-07-15T04:36:55.136Z,87.20
2018-07-15T04:37:55.139Z,84.60
2018-07-15T04:38:55.089Z,84.00
2018-07-15T04:39:55.123Z,84.70
2018-07-15T04:40:55.065Z,86.70
2018-07-15T04:41:55.037Z,86.60
2018-07-15T04:42:55.005Z,85.40
2018-07-15T04:43:55.071Z,91.00
2018-07-15T04:44:54.956Z,89.60
2018-07-15T04:45:54.933Z,89.30
2018-07-15T04:46:54.917Z,86.70
2018-07-15T04:47:54.888Z,84.10
2018-07-15T04:48:54.849Z,82.90
2018-07-15T04:49:54.849Z,84.70
2018-07-15T04:50:54.825Z,83.10
2018-07-15T04:51:54.796Z,85.10
2018-07-15T04:52:54.771Z,84.00
2018-07-15T04:53:54.745Z,84.00
2018-07-15T04:54:54.707Z,78.50
2018-07-15T04:55:54.700Z,79.30
2018-07-15T04:56:54.666Z,79.30
2018-07-15T04:57:54.649Z,83.40
2018-07-15T04:58:54.620Z,86.40
2018-07-15T04:59:54.603Z,89.30
2018-07-15T05:00:54.562Z,95.50
2018-07-15T05:01:54.611Z,94.60
2018-07-15T05:02:54.512Z,96.30
2018-07-15T05:03:54.509Z,99.90
2018-07-15T05:04:54.480Z,99.00
2018-07-15T05:07:38.154Z,98.10
2018-07-15T05:08:38.139Z,97.10
2018-07-15T05:09:38.098Z,96.00
2018-07-15T05:10:38.084Z,96.80
2018-07-15T05:11:38.060Z,98.60
2018-07-15T05:12:38.036Z,98.30
2018-07-15T05:13:38.011Z,97.40
2018-07-15T05:14:37.992Z,99.30
2018-07-15T05:15:37.953Z,99.70
2018-07-15T05:16:37.946Z,98.70
2018-07-15T05:17:37.921Z,100.80
2018-07-15T05:18:37.895Z,98.50
2018-07-15T05:19:37.866Z,98.10
2018-07-15T05:20:37.847Z,99.50
2018-07-15T05:21:37.820Z,100.00
2018-07-15T05:22:37.791Z,99.40
2018-07-15T05:23:37.773Z,98.20
2018-07-15T05:24:37.746Z,99.90
2018-07-15T05:25:37.723Z,99.20
2018-07-15T05:26:37.703Z,98.00
2018-07-15T05:27:37.671Z,96.20
2018-07-15T05:28:37.651Z,100.60
2018-07-15T05:29:37.614Z,97.10
2018-07-15T05:30:37.602Z,96.80
2018-07-15T05:31:37.576Z,98.40
2018-07-15T05:32:37.558Z,99.30
2018-07-15T05:33:37.514Z,99.10
2018-07-15T05:34:37.505Z,100.00
2018-07-15T05:35:37.471Z,102.00
2018-07-15T05:36:37.445Z,96.40
2018-07-15T05:37:37.430Z,99.30
2018-07-15T05:38:37.406Z,99.10
2018-07-15T05:39:37.385Z,96.20
2018-07-15T05:40:37.356Z,93.00
2018-07-15T05:41:37.335Z,95.50
2018-07-15T05:42:37.314Z,95.00
2018-07-15T05:43:37.288Z,112.90
2018-07-15T05:44:37.248Z,114.50
2018-07-15T05:45:37.244Z,113.30
2018-07-15T05:46:37.197Z,118.10
2018-07-15T05:47:37.192Z,111.40
2018-07-15T05:48:37.167Z,110.80
2018-07-15T05:49:37.129Z,113.30
2018-07-15T05:50:37.108Z,112.20
2018-07-15T05:51:37.076Z,112.20
2018-07-15T05:52:37.070Z,109.80
2018-07-15T05:53:37.030Z,110.80
2018-07-15T05:54:37.018Z,106.70
2018-07-15T05:55:36.997Z,108.20
2018-07-15T05:56:36.977Z,106.30
2018-07-15T05:57:36.947Z,106.60
2018-07-15T05:58:36.904Z,107.50
2018-07-15T05:59:36.886Z,104.90
2018-07-15T06:00:36.858Z,103.10
2018-07-15T06:01:36.848Z,107.60
2018-07-15T06:02:36.824Z,108.20
2018-07-15T06:03:36.869Z,107.90
2018-07-15T06:04:36.788Z,111.40
2018-07-15T06:05:36.744Z,107.20
2018-07-15T06:06:36.721Z,100.70
2018-07-15T06:07:36.697Z,103.80
2018-07-15T06:08:36.671Z,104.00
2018-07-15T06:09:36.648Z,105.50
2018-07-15T06:10:36.645Z,104.70
2018-07-15T06:11:36.602Z,107.90
2018-07-15T06:12:36.573Z,107.10
2018-07-15T06:13:36.554Z,105.50
2018-07-15T06:14:36.503Z,111.70
2018-07-15T06:15:36.499Z,108.30
2018-07-15T06:16:36.483Z,104.60
2018-07-15T06:17:36.455Z,109.30
2018-07-15T06:18:36.412Z,108.90
2018-07-15T06:19:36.388Z,106.90
2018-07-15T06:20:36.374Z,107.90
2018-07-15T06:21:36.357Z,109.20
2018-07-15T06:22:36.370Z,110.40
2018-07-15T06:23:36.387Z,110.90
2018-07-15T06:24:36.284Z,109.20
2018-07-15T06:25:36.260Z,111.20
2018-07-15T06:26:36.234Z,111.60
2018-07-15T06:27:36.205Z,110.40
2018-07-15T06:28:36.180Z,113.60
2018-07-15T06:29:36.164Z,110.10
2018-07-15T06:30:36.132Z,108.40
2018-07-15T06:31:36.108Z,107.90
2018-07-15T06:32:36.084Z,110.10
2018-07-15T06:33:36.062Z,108.20
2018-07-15T06:34:36.019Z,108.20
2018-07-15T06:35:36.008Z,109.50
2018-07-15T06:36:35.986Z,110.90
2018-07-15T06:37:35.963Z,106.80
2018-07-15T06:38:35.941Z,106.50
2018-07-15T06:39:35.895Z,108.70
2018-07-15T06:40:35.877Z,110.70
2018-07-15T06:41:35.863Z,108.60
2018-07-15T06:42:35.834Z,109.90
2018-07-15T06:43:35.811Z,110.40
2018-07-15T06:44:35.788Z,112.30
2018-07-15T06:45:35.768Z,114.90
2018-07-15T06:46:35.735Z,111.60
2018-07-15T06:47:35.722Z,110.40
2018-07-15T06:48:35.695Z,110.50
2018-07-15T06:49:35.663Z,107.10
2018-07-15T06:50:35.635Z,111.00
2018-07-15T06:51:35.616Z,109.10
2018-07-15T06:52:35.592Z,110.30
2018-07-15T06:53:35.549Z,111.50
2018-07-15T06:54:35.541Z,110.80
2018-07-15T06:55:35.516Z,111.00
2018-07-15T06:56:35.490Z,107.10
2018-07-15T06:57:35.469Z,108.40
2018-07-15T06:58:35.446Z,109.20
2018-07-15T06:59:35.415Z,108.20
2018-07-15T07:00:35.393Z,104.70
2018-07-15T07:01:35.475Z,104.10
2018-07-15T07:02:35.344Z,103.10
2018-07-15T07:03:35.322Z,101.80
2018-07-15T07:04:35.278Z,106.40
2018-07-15T07:05:35.270Z,105.30
2018-07-15T07:06:35.247Z,107.30
2018-07-15T07:07:35.263Z,104.10
2018-07-15T07:08:35.194Z,101.60
2018-07-15T07:09:35.168Z,101.20
2018-07-15T07:10:35.147Z,100.40
2018-07-15T07:11:35.127Z,102.70
2018-07-15T07:12:35.100Z,103.50
2018-07-15T07:13:35.068Z,99.90
2018-07-15T07:14:35.044Z,104.00
2018-07-15T07:15:35.005Z,99.90
2018-07-15T07:16:34.995Z,102.70
2018-07-15T07:17:34.964Z,107.60
2018-07-15T07:18:34.934Z,114.70
2018-07-15T07:19:34.905Z,114.80
2018-07-15T07:20:34.951Z,117.50
2018-07-15T07:21:34.863Z,115.80
2018-07-15T07:22:34.851Z,113.60
2018-07-15T07:23:34.823Z,116.80
2018-07-15T07:24:34.799Z,113.60
2018-07-15T07:25:34.778Z,117.30
2018-07-15T07:26:34.748Z,116.20
2018-07-15T07:27:34.725Z,111.80
2018-07-15T07:28:34.700Z,114.60
2018-07-15T07:29:34.662Z,115.00
2018-07-15T07:30:34.653Z,114.90
2018-07-15T07:31:34.612Z,113.90
2018-07-15T07:32:34.604Z,114.40
2018-07-15T07:33:34.580Z,114.20
2018-07-15T07:34:34.553Z,114.10
2018-07-15T07:35:34.528Z,113.70
2018-07-15T07:36:34.502Z,117.00
2018-07-15T07:37:34.479Z,116.60
2018-07-15T07:38:34.477Z,117.80
2018-07-15T07:39:34.432Z,115.20
2018-07-15T07:40:34.407Z,112.40
2018-07-15T07:41:34.382Z,108.80
2018-07-15T07:42:34.354Z,107.10
2018-07-15T07:43:34.330Z,106.00
2018-07-15T07:44:34.308Z,103.60
2018-07-15T07:45:34.283Z,106.30
2018-07-15T07:46:34.260Z,104.80
2018-07-15T07:47:34.234Z,107.10
2018-07-15T07:48:34.207Z,111.80
2018-07-15T07:49:34.183Z,116.80
2018-07-15T07:50:34.157Z,114.30
2018-07-15T07:51:34.134Z,111.80
2018-07-15T07:52:34.106Z,114.40
2018-07-15T07:53:34.081Z,115.60
2018-07-15T07:54:34.062Z,118.00
2018-07-15T07:55:34.035Z,110.50
2018-07-15T07:56:34.011Z,113.60
2018-07-15T07:57:33.986Z,106.40
2018-07-15T07:58:33.944Z,108.10
2018-07-15T07:59:33.922Z,110.80
2018-07-15T08:00:33.892Z,109.70
2018-07-15T08:01:33.867Z,103.00
2018-07-15T08:02:33.855Z,99.90
2018-07-15T08:03:33.820Z,93.90
2018-07-15T08:04:33.808Z,96.20
2018-07-15T08:05:33.775Z,92.00
2018-07-15T08:06:33.749Z,97.50
2018-07-15T08:07:33.725Z,97.00
2018-07-15T08:08:33.712Z,95.90
2018-07-15T08:09:33.684Z,96.10
2018-07-15T08:10:33.645Z,96.20
2018-07-15T08:11:33.640Z,93.50
2018-07-15T08:12:33.612Z,93.60
2018-07-15T08:13:33.584Z,99.30
2018-07-15T08:14:33.563Z,103.80
2018-07-15T08:15:33.536Z,111.80
2018-07-15T08:17:06.719Z,105.60
2018-07-15T08:17:33.488Z,107.80
2018-07-15T08:18:33.473Z,107.40
2018-07-15T08:19:33.435Z,105.90
2018-07-15T08:20:33.401Z,111.40
2018-07-15T08:21:33.373Z,109.60
2018-07-15T08:22:33.432Z,110.60
2018-07-15T08:23:33.339Z,108.20
2018-07-15T08:24:33.314Z,111.30
2018-07-15T08:25:33.283Z,109.20
2018-07-15T08:26:33.262Z,110.70
2018-07-15T08:27:33.235Z,104.10
2018-07-15T08:28:33.322Z,107.70
2018-07-15T08:29:33.188Z,110.00
2018-07-15T08:30:33.161Z,108.20
2018-07-15T08:31:33.135Z,109.90
2018-07-15T08:32:33.100Z,107.80
2018-07-15T08:33:33.076Z,108.80
2018-07-15T08:34:33.058Z,111.70
2018-07-15T08:35:33.033Z,108.00
2018-07-15T08:36:32.993Z,115.00
2018-07-15T08:37:32.988Z,114.30
2018-07-15T08:38:32.957Z,110.60
2018-07-15T08:39:32.933Z,113.00
2018-07-15T08:40:32.938Z,112.80
2018-07-15T08:41:32.887Z,113.70
2018-07-15T08:42:32.859Z,115.20
2018-07-15T08:43:32.842Z,112.60
2018-07-15T08:44:32.813Z,111.20
2018-07-15T08:45:32.770Z,115.50
2018-07-15T08:46:32.769Z,113.60
2018-07-15T08:47:32.738Z,112.80
2018-07-15T08:48:32.716Z,115.50
2018-07-15T08:49:32.688Z,115.80
2018-07-15T08:50:32.661Z,114.10
2018-07-15T08:51:32.638Z,117.50
2018-07-15T08:52:32.611Z,116.30
2018-07-15T08:53:32.588Z,120.10
2018-07-15T08:54:32.589Z,115.90
2018-07-15T08:55:32.533Z,111.00
2018-07-15T08:56:32.499Z,107.10
2018-07-15T08:57:32.489Z,109.30
2018-07-15T08:58:32.462Z,112.90
2018-07-15T08:59:32.435Z,116.40
2018-07-15T09:00:32.399Z,116.20
2018-07-15T09:01:32.385Z,113.40
2018-07-15T09:02:32.365Z,114.60
2018-07-15T09:03:32.335Z,114.90
2018-07-15T09:04:32.316Z,114.20
2018-07-15T09:05:32.284Z,112.80
2018-07-15T09:06:32.258Z,112.60
2018-07-15T09:07:32.243Z,116.80
2018-07-15T09:08:32.209Z,116.00
2018-07-15T09:09:32.190Z,114.90
2018-07-15T09:10:32.169Z,115.40
2018-07-15T09:11:32.124Z,113.60
2018-07-15T09:12:32.115Z,121.60
2018-07-15T09:13:32.122Z,127.20
2018-07-15T09:14:32.058Z,123.20
2018-07-15T09:15:32.023Z,124.50
2018-07-15T09:16:32.016Z,123.80
2018-07-15T09:17:31.969Z,124.60
2018-07-15T09:18:31.966Z,124.60
2018-07-15T09:19:31.932Z,125.30
2018-07-15T09:20:31.915Z,119.60
2018-07-15T09:21:31.888Z,123.60
2018-07-15T09:22:31.860Z,125.90
2018-07-15T09:23:31.835Z,125.60
2018-07-15T09:24:31.943Z,125.30
2018-07-15T09:25:31.783Z,124.10
2018-07-15T09:26:31.757Z,122.20
2018-07-15T09:27:31.718Z,117.00
2018-07-15T09:28:31.711Z,110.50
2018-07-15T09:29:31.692Z,109.90
2018-07-15T09:30:31.655Z,112.90
2018-07-15T09:31:31.630Z,112.70
2018-07-15T09:32:31.657Z,107.10
2018-07-15T09:33:31.581Z,110.60
2018-07-15T09:34:31.551Z,111.90
2018-07-15T09:35:31.603Z,110.90
2018-07-15T09:36:31.509Z,112.20
2018-07-15T09:37:31.482Z,104.40
2018-07-15T09:38:31.454Z,103.70
2018-07-15T09:39:31.412Z,108.00
2018-07-15T09:40:31.407Z,115.40
2018-07-15T09:41:31.377Z,115.60
2018-07-15T09:42:31.355Z,114.50
2018-07-15T09:43:31.315Z,116.00
2018-07-15T09:44:31.301Z,108.40
2018-07-15T09:45:31.286Z,104.20
2018-07-15T09:46:31.249Z,109.50
2018-07-15T09:47:31.231Z,102.60
2018-07-15T09:48:31.202Z,101.60
2018-07-15T09:49:31.173Z,99.10
2018-07-15T09:50:31.146Z,99.70
2018-07-15T09:51:31.133Z,100.20
2018-07-15T09:52:31.091Z,101.50
2018-07-15T09:53:31.083Z,108.00
2018-07-15T09:54:31.054Z,107.50
2018-07-15T09:55:31.026Z,106.10
2018-07-15T09:56:30.997Z,106.30
2018-07-15T09:57:30.976Z,109.90
2018-07-15T09:58:30.949Z,109.70
2018-07-15T09:59:30.911Z,108.70
2018-07-15T10:00:30.901Z,101.50
2018-07-15T10:01:30.877Z,102.30
2018-07-15T10:02:30.850Z,102.20
2018-07-15T10:03:30.823Z,104.00
2018-07-15T10:04:30.857Z,102.40
2018-07-15T10:05:30.774Z,100.10
2018-07-15T10:06:30.751Z,100.30
2018-07-15T10:07:30.789Z,101.70
2018-07-15T10:08:30.706Z,102.70
2018-07-15T10:09:30.675Z,100.60
2018-07-15T10:10:30.743Z,105.00
2018-07-15T10:11:30.627Z,102.30
2018-07-15T10:12:30.605Z,99.90
2018-07-15T10:13:30.567Z,97.70
2018-07-15T10:14:30.553Z,94.90
2018-07-15T10:15:30.510Z,97.50
2018-07-15T10:16:30.501Z,97.00
2018-07-15T10:17:30.478Z,96.20
2018-07-15T10:19:03.718Z,96.80
2018-07-15T10:19:30.431Z,95.90
2018-07-15T10:20:30.404Z,95.70
2018-07-15T10:21:30.385Z,94.90
2018-07-15T10:22:30.343Z,97.70
2018-07-15T10:23:30.327Z,98.60
2018-07-15T10:24:30.304Z,97.30
2018-07-15T10:25:30.287Z,100.00
2018-07-15T10:26:30.274Z,95.80
2018-07-15T10:27:30.232Z,96.20
2018-07-15T10:28:30.211Z,95.40
2018-07-15T10:29:30.185Z,93.70
2018-07-15T10:30:30.161Z,91.30
2018-07-15T10:31:30.124Z,91.40
2018-07-15T10:32:30.105Z,94.90
2018-07-15T10:33:30.088Z,93.00
2018-07-15T10:34:30.071Z,93.80
2018-07-15T10:35:30.036Z,91.10
2018-07-15T10:36:30.006Z,93.50
2018-07-15T10:37:29.993Z,91.60
2018-07-15T10:38:29.974Z,87.10
2018-07-15T10:39:29.943Z,85.70
2018-07-15T10:40:29.926Z,86.80
2018-07-15T10:41:29.907Z,88.40
2018-07-15T10:42:29.877Z,89.60
2018-07-15T10:43:29.859Z,89.90
2018-07-15T10:44:29.836Z,89.00
2018-07-15T10:45:29.819Z,85.30
2018-07-15T10:46:29.787Z,89.30
2018-07-15T10:47:29.765Z,86.90
2018-07-15T10:48:29.739Z,87.80
2018-07-15T10:49:29.721Z,87.10
2018-07-15T10:50:29.697Z,88.20
2018-07-15T10:51:29.674Z,88.50
2018-07-15T10:52:29.649Z,88.20
2018-07-15T10:53:29.630Z,85.00
2018-07-15T10:54:29.606Z,89.80
2018-07-15T10:55:29.583Z,88.10
2018-07-15T10:56:29.568Z,88.20
2018-07-15T10:57:29.550Z,87.90
2018-07-15T10:58:29.517Z,85.50
2018-07-15T10:59:29.504Z,86.60
2018-07-15T11:00:29.467Z,88.00
2018-07-15T11:01:29.443Z,85.30
2018-07-15T11:02:29.432Z,88.10
2018-07-15T11:03:29.392Z,82.60
2018-07-15T11:04:29.390Z,82.60
2018-07-15T11:05:29.375Z,84.90
2018-07-15T11:06:29.447Z,85.60
2018-07-15T11:07:29.323Z,84.10
2018-07-15T11:08:29.305Z,84.30
2018-07-15T11:09:29.284Z,86.80
2018-07-15T11:10:29.266Z,87.60
2018-07-15T11:11:29.251Z,83.00
2018-07-15T11:12:29.220Z,84.10
2018-07-15T11:13:29.267Z,84.60
2018-07-15T11:14:29.178Z,83.20
2018-07-15T11:15:29.167Z,81.00
2018-07-15T11:16:29.148Z,81.20
2018-07-15T11:17:29.121Z,73.10
2018-07-15T11:18:29.099Z,74.90
2018-07-15T11:19:29.076Z,77.90
2018-07-15T11:20:29.056Z,76.60
2018-07-15T11:21:29.027Z,81.40
2018-07-15T11:22:29.104Z,81.50
2018-07-15T11:23:28.987Z,82.50
2018-07-15T11:24:28.978Z,84.60
2018-07-15T11:25:28.947Z,78.40
2018-07-15T11:26:28.936Z,78.70
2018-07-15T11:27:28.899Z,74.50
2018-07-15T11:28:28.896Z,70.50
2018-07-15T11:29:28.875Z,72.80
2018-07-15T11:30:28.857Z,75.90
2018-07-15T11:31:28.883Z,75.70
2018-07-15T11:32:28.820Z,67.70
2018-07-15T11:33:28.799Z,78.00
2018-07-15T11:34:28.775Z,79.70
2018-07-15T11:35:28.761Z,74.30
2018-07-15T11:36:28.723Z,74.10
2018-07-15T11:37:28.726Z,76.00
2018-07-15T11:38:28.703Z,78.40
2018-07-15T11:39:28.686Z,77.70
2018-07-15T11:40:28.659Z,78.00
2018-07-15T11:41:28.647Z,77.50
2018-07-15T11:42:28.627Z,76.40
2018-07-15T11:43:28.607Z,81.80
2018-07-15T11:44:28.569Z,77.50
2018-07-15T11:45:28.571Z,70.60
2018-07-15T11:46:28.545Z,70.40
2018-07-15T11:47:28.528Z,71.90
2018-07-15T11:48:28.517Z,72.60
2018-07-15T11:49:28.495Z,70.60
2018-07-15T11:50:28.470Z,68.60
2018-07-15T11:51:28.460Z,68.90
2018-07-15T11:52:28.434Z,67.90
2018-07-15T11:53:28.416Z,69.50
2018-07-15T11:55:01.610Z,66.20
2018-07-15T11:55:28.378Z,66.30
2018-07-15T11:56:28.361Z,63.60
2018-07-15T11:57:28.342Z,65.00
2018-07-15T11:58:28.321Z,66.40
2018-07-15T11:59:28.305Z,63.80
2018-07-15T12:00:28.283Z,64.60
2018-07-15T12:01:28.303Z,62.30
2018-07-15T12:02:28.235Z,61.70
2018-07-15T12:03:28.229Z,59.40
2018-07-15T12:04:28.207Z,63.70
2018-07-15T12:05:28.193Z,64.90
2018-07-15T12:06:28.175Z,63.70
2018-07-15T12:07:28.158Z,63.80
2018-07-15T12:08:28.140Z,64.50
2018-07-15T12:09:28.130Z,64.40
2018-07-15T12:10:28.107Z,65.60
2018-07-15T12:11:28.087Z,61.60
2018-07-15T12:12:28.069Z,66.30
2018-07-15T12:13:28.052Z,64.20
2018-07-15T12:14:28.034Z,62.80
2018-07-15T12:15:28.013Z,63.50
2018-07-15T12:16:28.000Z,64.10
2018-07-15T12:17:27.985Z,61.40
2018-07-15T12:18:27.967Z,65.40
2018-07-15T12:19:27.944Z,63.90
2018-07-15T12:20:27.947Z,61.40
2018-07-15T12:21:27.911Z,64.70
2018-07-15T12:22:27.894Z,64.10
2018-07-15T12:23:27.883Z,65.10
2018-07-15T12:24:27.860Z,63.30
2018-07-15T12:25:27.834Z,63.80
2018-07-15T12:26:27.832Z,62.20
2018-07-15T12:27:27.813Z,62.40
2018-07-15T12:28:27.800Z,59.40
2018-07-15T12:29:27.873Z,59.40
2018-07-15T12:30:27.763Z,61.50
2018-07-15T12:31:27.752Z,61.20
2018-07-15T12:32:27.724Z,62.30
2018-07-15T12:33:27.712Z,63.60
2018-07-15T12:34:27.698Z,63.40
2018-07-15T12:35:27.683Z,61.50
2018-07-15T12:36:27.659Z,62.10
2018-07-15T12:37:27.655Z,62.20
2018-07-15T12:38:27.630Z,63.10
2018-07-15T12:39:27.619Z,62.50
2018-07-15T12:40:27.607Z,63.10
2018-07-15T12:41:27.581Z,64.40
2018-07-15T12:42:27.568Z,62.20
2018-07-15T12:43:27.600Z,58.70
2018-07-15T12:44:27.540Z,55.80
2018-07-15T12:45:27.525Z,57.60